sensor_id;sensor_type;location;lat;lon;timestamp;pressure;altitude;pressure_sealevel;temperature;humidity
38303;BME280;24103;42.454;27.400;2023-06-10T00:00:37;100164.72;;;16.21;100.00
38303;BME280;24103;42.454;27.400;2023-06-10T00:03:02;100162.56;;;16.15;100.00
38303;BME280;24103;42.454;27.400;2023-06-10T00:05:29;100166.63;;;16.09;100.00
38303;BME280;24103;42.454;27.400;2023-06-10T00:07:55;100168.84;;;16.04;100.00
38303;BME280;24103;42.454;27.400;2023-06-10T00:10:21;100169.25;;;15.99;100.00
38303;BME280;24103;42.454;27.400;2023-06-10T00:12:47;100168.81;;;15.94;100.00
38303;BME280;24103;42.454;27.400;2023-06-10T00:15:13;100168.06;;;15.82;100.00
38303;BME280;24103;42.454;27.400;2023-06-10T00:17:38;100177.63;;;15.74;100.00
38303;BME280;24103;42.454;27.400;2023-06-10T00:20:07;100169.19;;;15.69;100.00
38303;BME280;24103;42.454;27.400;2023-06-10T00:22:34;100171.41;;;15.63;100.00
38303;BME280;24103;42.454;27.400;2023-06-10T00:25:00;100176.84;;;15.62;100.00
38303;BME280;24103;42.454;27.400;2023-06-10T00:27:25;100172.66;;;15.59;100.00
38303;BME280;24103;42.454;27.400;2023-06-10T00:29:56;100161.13;;;15.59;100.00
38303;BME280;24103;42.454;27.400;2023-06-10T00:32:22;100166.47;;;15.59;100.00
38303;BME280;24103;42.454;27.400;2023-06-10T00:34:47;100164.06;;;15.56;100.00
38303;BME280;24103;42.454;27.400;2023-06-10T00:37:13;100163.47;;;15.52;100.00
38303;BME280;24103;42.454;27.400;2023-06-10T00:39:38;100156.75;;;15.48;100.00
38303;BME280;24103;42.454;27.400;2023-06-10T00:42:04;100158.41;;;15.49;100.00
38303;BME280;24103;42.454;27.400;2023-06-10T00:44:32;100157.69;;;15.47;100.00
38303;BME280;24103;42.454;27.400;2023-06-10T00:46:58;100154.34;;;15.45;100.00
38303;BME280;24103;42.454;27.400;2023-06-10T00:49:23;100155.88;;;15.47;100.00
38303;BME280;24103;42.454;27.400;2023-06-10T00:51:51;100155.84;;;15.38;100.00
38303;BME280;24103;42.454;27.400;2023-06-10T00:54:17;100162.38;;;15.34;100.00
38303;BME280;24103;42.454;27.400;2023-06-10T00:56:43;100154.44;;;15.22;100.00
38303;BME280;24103;42.454;27.400;2023-06-10T00:59:09;100154.94;;;15.16;100.00
38303;BME280;24103;42.454;27.400;2023-06-10T01:01:35;100161.88;;;15.07;100.00
38303;BME280;24103;42.454;27.400;2023-06-10T01:04:03;100160.97;;;14.97;100.00
38303;BME280;24103;42.454;27.400;2023-06-10T01:09:13;100152.16;;;14.97;100.00
38303;BME280;24103;42.454;27.400;2023-06-10T01:11:48;100152.97;;;14.97;100.00
38303;BME280;24103;42.454;27.400;2023-06-10T01:14:17;100153.22;;;14.94;100.00
38303;BME280;24103;42.454;27.400;2023-06-10T01:16:43;100154.06;;;14.95;100.00
38303;BME280;24103;42.454;27.400;2023-06-10T01:19:11;100145.63;;;14.89;100.00
38303;BME280;24103;42.454;27.400;2023-06-10T01:21:38;100155.31;;;14.90;100.00
38303;BME280;24103;42.454;27.400;2023-06-10T01:24:05;100153.47;;;14.91;100.00
38303;BME280;24103;42.454;27.400;2023-06-10T01:26:34;100142.97;;;14.89;100.00
38303;BME280;24103;42.454;27.400;2023-06-10T01:29:09;100145.03;;;14.86;100.00
38303;BME280;24103;42.454;27.400;2023-06-10T01:31:44;100147.13;;;14.82;100.00
38303;BME280;24103;42.454;27.400;2023-06-10T01:34:14;100144.69;;;14.79;100.00
38303;BME280;24103;42.454;27.400;2023-06-10T01:36:44;100144.25;;;14.74;100.00
38303;BME280;24103;42.454;27.400;2023-06-10T01:39:11;100135.78;;;14.69;100.00
38303;BME280;24103;42.454;27.400;2023-06-10T01:41:38;100137.00;;;14.65;100.00
38303;BME280;24103;42.454;27.400;2023-06-10T01:44:05;100130.00;;;14.64;100.00
38303;BME280;24103;42.454;27.400;2023-06-10T01:46:30;100137.25;;;14.62;100.00
38303;BME280;24103;42.454;27.400;2023-06-10T01:48:56;100128.56;;;14.60;100.00
38303;BME280;24103;42.454;27.400;2023-06-10T01:51:21;100126.50;;;14.52;100.00
38303;BME280;24103;42.454;27.400;2023-06-10T01:53:47;100129.41;;;14.49;100.00
38303;BME280;24103;42.454;27.400;2023-06-10T01:56:12;100130.50;;;14.46;100.00
38303;BME280;24103;42.454;27.400;2023-06-10T01:58:43;100127.13;;;14.44;100.00
38303;BME280;24103;42.454;27.400;2023-06-10T02:01:09;100128.06;;;14.43;100.00
38303;BME280;24103;42.454;27.400;2023-06-10T02:03:35;100121.22;;;14.41;100.00
38303;BME280;24103;42.454;27.400;2023-06-10T02:06:00;100121.34;;;14.39;100.00
38303;BME280;24103;42.454;27.400;2023-06-10T02:08:26;100121.22;;;14.41;100.00
38303;BME280;24103;42.454;27.400;2023-06-10T02:11:01;100117.31;;;14.45;100.00
38303;BME280;24103;42.454;27.400;2023-06-10T02:13:38;100126.41;;;14.42;100.00
38303;BME280;24103;42.454;27.400;2023-06-10T02:16:04;100129.06;;;14.42;100.00
38303;BME280;24103;42.454;27.400;2023-06-10T02:18:31;100123.88;;;14.41;100.00
38303;BME280;24103;42.454;27.400;2023-06-10T02:20:56;100123.13;;;14.38;100.00
38303;BME280;24103;42.454;27.400;2023-06-10T02:23:22;100116.16;;;14.37;100.00
38303;BME280;24103;42.454;27.400;2023-06-10T02:25:47;100121.94;;;14.43;100.00
38303;BME280;24103;42.454;27.400;2023-06-10T02:28:13;100115.03;;;14.40;100.00
38303;BME280;24103;42.454;27.400;2023-06-10T02:30:42;100108.88;;;14.40;100.00
38303;BME280;24103;42.454;27.400;2023-06-10T02:33:08;100113.13;;;14.42;100.00
38303;BME280;24103;42.454;27.400;2023-06-10T02:35:38;100102.50;;;14.42;100.00
38303;BME280;24103;42.454;27.400;2023-06-10T02:38:03;100112.88;;;14.45;100.00
38303;BME280;24103;42.454;27.400;2023-06-10T02:40:30;100112.72;;;14.47;100.00
38303;BME280;24103;42.454;27.400;2023-06-10T02:42:55;100113.59;;;14.47;100.00
38303;BME280;24103;42.454;27.400;2023-06-10T02:45:21;100102.84;;;14.49;100.00
38303;BME280;24103;42.454;27.400;2023-06-10T02:47:46;100106.44;;;14.59;100.00
38303;BME280;24103;42.454;27.400;2023-06-10T02:50:12;100104.97;;;14.66;100.00
38303;BME280;24103;42.454;27.400;2023-06-10T02:52:37;100109.28;;;14.79;100.00
38303;BME280;24103;42.454;27.400;2023-06-10T02:55:04;100111.28;;;14.86;100.00
38303;BME280;24103;42.454;27.400;2023-06-10T02:57:29;100103.28;;;14.98;100.00
38303;BME280;24103;42.454;27.400;2023-06-10T02:59:55;100102.84;;;15.35;100.00
38303;BME280;24103;42.454;27.400;2023-06-10T03:02:20;100100.94;;;15.98;100.00
38303;BME280;24103;42.454;27.400;2023-06-10T03:04:47;100107.28;;;16.67;100.00
38303;BME280;24103;42.454;27.400;2023-06-10T03:07:12;100099.09;;;17.47;100.00
38303;BME280;24103;42.454;27.400;2023-06-10T03:09:39;100087.81;;;18.46;100.00
38303;BME280;24103;42.454;27.400;2023-06-10T03:12:04;100074.16;;;19.47;100.00
38303;BME280;24103;42.454;27.400;2023-06-10T03:14:31;100077.47;;;20.61;98.83
38303;BME280;24103;42.454;27.400;2023-06-10T03:16:56;100066.25;;;21.87;88.91
38303;BME280;24103;42.454;27.400;2023-06-10T03:19:22;100053.50;;;22.98;77.46
38303;BME280;24103;42.454;27.400;2023-06-10T03:21:50;100060.56;;;23.97;68.11
38303;BME280;24103;42.454;27.400;2023-06-10T03:24:20;100050.56;;;25.14;60.85
38303;BME280;24103;42.454;27.400;2023-06-10T03:26:45;100046.19;;;26.18;54.91
38303;BME280;24103;42.454;27.400;2023-06-10T03:29:11;100032.34;;;26.67;49.63
38303;BME280;24103;42.454;27.400;2023-06-10T03:31:36;100029.81;;;27.46;47.55
38303;BME280;24103;42.454;27.400;2023-06-10T03:34:02;100026.00;;;28.19;44.86
38303;BME280;24103;42.454;27.400;2023-06-10T03:36:28;100022.84;;;29.11;42.83
38303;BME280;24103;42.454;27.400;2023-06-10T03:38:54;100010.72;;;30.06;40.63
38303;BME280;24103;42.454;27.400;2023-06-10T03:41:22;100008.81;;;30.79;38.31
38303;BME280;24103;42.454;27.400;2023-06-10T03:43:48;99998.66;;;31.10;36.35
38303;BME280;24103;42.454;27.400;2023-06-10T03:46:13;99984.50;;;31.37;34.74
38303;BME280;24103;42.454;27.400;2023-06-10T03:48:39;99992.97;;;31.76;34.03
38303;BME280;24103;42.454;27.400;2023-06-10T03:51:04;99982.28;;;32.78;31.90
38303;BME280;24103;42.454;27.400;2023-06-10T03:53:30;99980.63;;;33.55;30.51
38303;BME280;24103;42.454;27.400;2023-06-10T03:55:56;99976.31;;;33.81;29.90
38303;BME280;24103;42.454;27.400;2023-06-10T03:58:22;99970.59;;;34.10;29.32
38303;BME280;24103;42.454;27.400;2023-06-10T04:00:49;99970.72;;;34.52;28.54
38303;BME280;24103;42.454;27.400;2023-06-10T04:03:15;99967.66;;;34.81;28.12
38303;BME280;24103;42.454;27.400;2023-06-10T04:05:41;99956.63;;;35.19;27.41
38303;BME280;24103;42.454;27.400;2023-06-10T04:08:07;99964.50;;;35.48;27.09
38303;BME280;24103;42.454;27.400;2023-06-10T04:10:33;99960.22;;;35.77;26.88
38303;BME280;24103;42.454;27.400;2023-06-10T04:12:58;99958.63;;;36.02;26.71
38303;BME280;24103;42.454;27.400;2023-06-10T04:15:25;99952.06;;;36.49;26.02
38303;BME280;24103;42.454;27.400;2023-06-10T04:17:50;99955.47;;;37.48;26.18
38303;BME280;24103;42.454;27.400;2023-06-10T04:20:16;99946.06;;;38.78;24.37
38303;BME280;24103;42.454;27.400;2023-06-10T04:22:41;99944.38;;;39.73;23.21
38303;BME280;24103;42.454;27.400;2023-06-10T04:25:09;99945.56;;;40.57;22.73
38303;BME280;24103;42.454;27.400;2023-06-10T04:27:34;99933.94;;;41.02;21.92
38303;BME280;24103;42.454;27.400;2023-06-10T04:30:00;99937.16;;;41.37;21.21
38303;BME280;24103;42.454;27.400;2023-06-10T04:32:25;99935.94;;;41.66;20.48
38303;BME280;24103;42.454;27.400;2023-06-10T04:35:04;99931.47;;;41.92;19.51
38303;BME280;24103;42.454;27.400;2023-06-10T04:37:42;99926.41;;;42.31;19.52
38303;BME280;24103;42.454;27.400;2023-06-10T04:40:08;99922.09;;;42.79;18.87
38303;BME280;24103;42.454;27.400;2023-06-10T04:42:34;99915.84;;;42.73;18.48
38303;BME280;24103;42.454;27.400;2023-06-10T04:45:00;99916.59;;;42.56;18.19
38303;BME280;24103;42.454;27.400;2023-06-10T04:47:26;99913.69;;;42.70;18.30
38303;BME280;24103;42.454;27.400;2023-06-10T04:49:52;99923.22;;;43.18;17.76
38303;BME280;24103;42.454;27.400;2023-06-10T04:52:17;99923.78;;;42.57;18.17
38303;BME280;24103;42.454;27.400;2023-06-10T04:54:43;99928.78;;;43.18;18.08
38303;BME280;24103;42.454;27.400;2023-06-10T04:57:09;99922.03;;;43.85;17.56
38303;BME280;24103;42.454;27.400;2023-06-10T04:59:37;99917.72;;;44.31;16.92
38303;BME280;24103;42.454;27.400;2023-06-10T05:02:06;99913.59;;;44.94;16.65
38303;BME280;24103;42.454;27.400;2023-06-10T05:04:32;99906.31;;;45.10;16.34
38303;BME280;24103;42.454;27.400;2023-06-10T05:06:57;99907.47;;;45.60;16.22
38303;BME280;24103;42.454;27.400;2023-06-10T05:09:23;99908.34;;;45.52;15.89
38303;BME280;24103;42.454;27.400;2023-06-10T05:11:48;99905.81;;;45.59;16.06
38303;BME280;24103;42.454;27.400;2023-06-10T05:14:14;99912.44;;;46.30;15.82
38303;BME280;24103;42.454;27.400;2023-06-10T05:16:41;99901.56;;;46.74;15.36
38303;BME280;24103;42.454;27.400;2023-06-10T05:19:07;99901.47;;;47.07;14.79
38303;BME280;24103;42.454;27.400;2023-06-10T05:21:33;99899.22;;;47.78;14.46
38303;BME280;24103;42.454;27.400;2023-06-10T05:23:58;99892.31;;;48.32;14.14
38303;BME280;24103;42.454;27.400;2023-06-10T05:26:24;99885.25;;;48.23;13.81
38303;BME280;24103;42.454;27.400;2023-06-10T05:28:50;99889.47;;;48.77;13.80
38303;BME280;24103;42.454;27.400;2023-06-10T05:31:16;99887.38;;;49.80;13.05
38303;BME280;24103;42.454;27.400;2023-06-10T05:33:41;99877.75;;;49.61;13.11
38303;BME280;24103;42.454;27.400;2023-06-10T05:36:07;99882.63;;;50.73;12.72
38303;BME280;24103;42.454;27.400;2023-06-10T05:38:32;99885.19;;;50.59;12.28
38303;BME280;24103;42.454;27.400;2023-06-10T05:40:57;99876.38;;;50.87;12.17
38303;BME280;24103;42.454;27.400;2023-06-10T05:43:24;99879.50;;;51.05;12.09
38303;BME280;24103;42.454;27.400;2023-06-10T05:45:49;99884.69;;;51.30;12.43
38303;BME280;24103;42.454;27.400;2023-06-10T05:48:15;99884.69;;;51.60;12.08
38303;BME280;24103;42.454;27.400;2023-06-10T05:50:40;99887.63;;;51.71;12.43
38303;BME280;24103;42.454;27.400;2023-06-10T05:53:08;99886.53;;;51.83;12.40
38303;BME280;24103;42.454;27.400;2023-06-10T05:55:43;99883.81;;;51.56;11.82
38303;BME280;24103;42.454;27.400;2023-06-10T05:58:09;99882.44;;;51.42;12.15
38303;BME280;24103;42.454;27.400;2023-06-10T06:00:35;99879.66;;;51.76;12.52
38303;BME280;24103;42.454;27.400;2023-06-10T06:03:00;99883.06;;;52.34;12.12
38303;BME280;24103;42.454;27.400;2023-06-10T06:05:26;99878.59;;;52.78;11.83
38303;BME280;24103;42.454;27.400;2023-06-10T06:07:51;99883.28;;;53.18;11.67
38303;BME280;24103;42.454;27.400;2023-06-10T06:10:18;99874.66;;;53.67;11.23
38303;BME280;24103;42.454;27.400;2023-06-10T06:12:43;99875.34;;;53.38;11.32
38303;BME280;24103;42.454;27.400;2023-06-10T06:15:10;99873.31;;;53.39;11.21
38303;BME280;24103;42.454;27.400;2023-06-10T06:17:35;99873.09;;;52.99;11.19
38303;BME280;24103;42.454;27.400;2023-06-10T06:20:02;99871.16;;;53.11;11.47
38303;BME280;24103;42.454;27.400;2023-06-10T06:22:28;99866.50;;;53.47;10.93
38303;BME280;24103;42.454;27.400;2023-06-10T06:24:53;99859.31;;;53.68;10.51
38303;BME280;24103;42.454;27.400;2023-06-10T06:27:19;99856.56;;;54.22;10.33
38303;BME280;24103;42.454;27.400;2023-06-10T06:29:44;99858.16;;;54.77;10.07
38303;BME280;24103;42.454;27.400;2023-06-10T06:32:10;99848.47;;;54.81;9.56
38303;BME280;24103;42.454;27.400;2023-06-10T06:34:35;99845.28;;;54.54;10.02
38303;BME280;24103;42.454;27.400;2023-06-10T06:37:00;99848.69;;;55.45;9.54
38303;BME280;24103;42.454;27.400;2023-06-10T06:39:26;99841.56;;;55.89;9.18
38303;BME280;24103;42.454;27.400;2023-06-10T06:41:51;99836.28;;;56.40;8.73
38303;BME280;24103;42.454;27.400;2023-06-10T06:44:17;99833.25;;;56.20;8.60
38303;BME280;24103;42.454;27.400;2023-06-10T06:46:42;99835.63;;;55.65;8.34
38303;BME280;24103;42.454;27.400;2023-06-10T06:49:08;99842.19;;;56.11;8.38
38303;BME280;24103;42.454;27.400;2023-06-10T06:51:33;99839.28;;;56.67;8.21
38303;BME280;24103;42.454;27.400;2023-06-10T06:53:59;99832.91;;;57.28;8.92
38303;BME280;24103;42.454;27.400;2023-06-10T06:56:25;99839.06;;;56.89;8.62
38303;BME280;24103;42.454;27.400;2023-06-10T06:58:51;99847.34;;;56.27;9.01
38303;BME280;24103;42.454;27.400;2023-06-10T07:01:17;99843.63;;;56.37;8.73
38303;BME280;24103;42.454;27.400;2023-06-10T07:03:42;99845.44;;;56.96;8.74
38303;BME280;24103;42.454;27.400;2023-06-10T07:06:08;99850.03;;;56.87;8.94
38303;BME280;24103;42.454;27.400;2023-06-10T07:08:33;99854.53;;;56.80;9.30
38303;BME280;24103;42.454;27.400;2023-06-10T07:10:58;99847.56;;;56.51;9.07
38303;BME280;24103;42.454;27.400;2023-06-10T07:13:24;99846.09;;;56.73;9.10
38303;BME280;24103;42.454;27.400;2023-06-10T07:15:50;99843.97;;;56.43;9.05
38303;BME280;24103;42.454;27.400;2023-06-10T07:18:15;99849.94;;;56.56;8.83
38303;BME280;24103;42.454;27.400;2023-06-10T07:20:51;99850.16;;;57.10;8.93
38303;BME280;24103;42.454;27.400;2023-06-10T07:23:16;99842.63;;;57.89;8.56
38303;BME280;24103;42.454;27.400;2023-06-10T07:25:42;99840.41;;;57.42;8.68
38303;BME280;24103;42.454;27.400;2023-06-10T07:28:07;99846.75;;;56.92;8.64
38303;BME280;24103;42.454;27.400;2023-06-10T07:30:35;99851.50;;;56.11;8.68
38303;BME280;24103;42.454;27.400;2023-06-10T07:33:01;99837.00;;;56.02;9.04
38303;BME280;24103;42.454;27.400;2023-06-10T07:35:28;99841.13;;;56.84;8.62
38303;BME280;24103;42.454;27.400;2023-06-10T07:37:54;99837.56;;;56.73;8.20
38303;BME280;24103;42.454;27.400;2023-06-10T07:40:20;99844.66;;;56.05;8.70
38303;BME280;24103;42.454;27.400;2023-06-10T07:42:46;99841.00;;;55.45;8.89
38303;BME280;24103;42.454;27.400;2023-06-10T07:45:12;99848.06;;;54.90;9.25
38303;BME280;24103;42.454;27.400;2023-06-10T07:47:37;99848.13;;;54.61;8.96
38303;BME280;24103;42.454;27.400;2023-06-10T07:50:04;99835.88;;;51.86;9.68
38303;BME280;24103;42.454;27.400;2023-06-10T07:52:30;99845.19;;;50.19;11.00
38303;BME280;24103;42.454;27.400;2023-06-10T07:54:57;99845.03;;;49.69;11.32
38303;BME280;24103;42.454;27.400;2023-06-10T07:57:25;99848.41;;;49.78;11.26
38303;BME280;24103;42.454;27.400;2023-06-10T07:59:50;99847.13;;;48.82;12.27
38303;BME280;24103;42.454;27.400;2023-06-10T08:02:22;99847.66;;;48.87;12.16
38303;BME280;24103;42.454;27.400;2023-06-10T08:04:48;99853.63;;;48.70;12.48
38303;BME280;24103;42.454;27.400;2023-06-10T08:07:20;99852.25;;;47.72;12.57
38303;BME280;24103;42.454;27.400;2023-06-10T08:09:47;99854.25;;;47.71;13.20
38303;BME280;24103;42.454;27.400;2023-06-10T08:12:17;99849.13;;;47.20;13.05
38303;BME280;24103;42.454;27.400;2023-06-10T08:14:42;99848.22;;;46.79;13.87
38303;BME280;24103;42.454;27.400;2023-06-10T08:17:14;99860.91;;;45.31;14.75
38303;BME280;24103;42.454;27.400;2023-06-10T08:19:40;99847.50;;;42.63;16.04
38303;BME280;24103;42.454;27.400;2023-06-10T08:22:06;99850.41;;;39.68;19.01
38303;BME280;24103;42.454;27.400;2023-06-10T08:24:33;99858.63;;;37.70;20.47
38303;BME280;24103;42.454;27.400;2023-06-10T08:26:58;99862.66;;;36.31;22.37
38303;BME280;24103;42.454;27.400;2023-06-10T08:29:27;99871.03;;;35.27;23.66
38303;BME280;24103;42.454;27.400;2023-06-10T08:31:57;99873.66;;;34.21;24.97
38303;BME280;24103;42.454;27.400;2023-06-10T08:34:24;99875.16;;;34.07;25.46
38303;BME280;24103;42.454;27.400;2023-06-10T08:36:50;99874.81;;;33.71;26.19
38303;BME280;24103;42.454;27.400;2023-06-10T08:39:20;99886.69;;;33.10;26.86
38303;BME280;24103;42.454;27.400;2023-06-10T08:44:30;99888.22;;;32.28;27.85
38303;BME280;24103;42.454;27.400;2023-06-10T08:47:14;99884.59;;;31.93;29.25
38303;BME280;24103;42.454;27.400;2023-06-10T08:49:47;99888.38;;;31.75;29.04
38303;BME280;24103;42.454;27.400;2023-06-10T08:52:27;99887.88;;;31.78;29.27
38303;BME280;24103;42.454;27.400;2023-06-10T08:55:37;99891.91;;;31.47;29.41
38303;BME280;24103;42.454;27.400;2023-06-10T08:58:03;99898.72;;;31.21;29.90
38303;BME280;24103;42.454;27.400;2023-06-10T09:00:30;99895.22;;;30.97;29.68
38303;BME280;24103;42.454;27.400;2023-06-10T09:02:56;99887.97;;;30.67;30.18
38303;BME280;24103;42.454;27.400;2023-06-10T09:05:22;99887.28;;;30.60;31.10
38303;BME280;24103;42.454;27.400;2023-06-10T09:07:51;99886.91;;;30.68;30.69
38303;BME280;24103;42.454;27.400;2023-06-10T09:10:17;99883.41;;;30.13;30.88
38303;BME280;24103;42.454;27.400;2023-06-10T09:12:48;99898.19;;;30.06;31.61
38303;BME280;24103;42.454;27.400;2023-06-10T09:15:13;99891.00;;;30.11;31.18
38303;BME280;24103;42.454;27.400;2023-06-10T09:17:40;99891.78;;;30.00;29.63
38303;BME280;24103;42.454;27.400;2023-06-10T09:20:07;99896.81;;;30.27;30.53
38303;BME280;24103;42.454;27.400;2023-06-10T09:22:54;99905.38;;;30.42;30.44
38303;BME280;24103;42.454;27.400;2023-06-10T09:25:34;99897.03;;;30.13;31.12
38303;BME280;24103;42.454;27.400;2023-06-10T09:28:00;99900.13;;;30.17;30.66
38303;BME280;24103;42.454;27.400;2023-06-10T09:30:34;99896.28;;;30.37;30.30
38303;BME280;24103;42.454;27.400;2023-06-10T09:33:11;99900.19;;;30.64;29.78
38303;BME280;24103;42.454;27.400;2023-06-10T09:35:46;99898.28;;;30.65;29.00
38303;BME280;24103;42.454;27.400;2023-06-10T09:38:15;99895.56;;;30.65;29.15
38303;BME280;24103;42.454;27.400;2023-06-10T09:40:59;99895.31;;;31.14;29.24
38303;BME280;24103;42.454;27.400;2023-06-10T09:44:21;99898.44;;;31.58;28.96
38303;BME280;24103;42.454;27.400;2023-06-10T09:46:51;99893.16;;;31.68;28.62
38303;BME280;24103;42.454;27.400;2023-06-10T09:49:28;99887.09;;;31.66;29.14
38303;BME280;24103;42.454;27.400;2023-06-10T09:51:56;99880.16;;;31.47;29.40
38303;BME280;24103;42.454;27.400;2023-06-10T09:54:22;99893.75;;;31.18;29.68
38303;BME280;24103;42.454;27.400;2023-06-10T09:56:49;99895.44;;;31.59;30.23
38303;BME280;24103;42.454;27.400;2023-06-10T09:59:15;99882.81;;;31.30;29.33
38303;BME280;24103;42.454;27.400;2023-06-10T10:01:41;99883.47;;;30.84;29.84
38303;BME280;24103;42.454;27.400;2023-06-10T10:04:23;99878.13;;;30.78;29.95
38303;BME280;24103;42.454;27.400;2023-06-10T10:06:49;99888.94;;;30.61;30.35
38303;BME280;24103;42.454;27.400;2023-06-10T10:09:15;99887.63;;;30.75;30.87
38303;BME280;24103;42.454;27.400;2023-06-10T10:11:40;99885.78;;;31.28;29.59
38303;BME280;24103;42.454;27.400;2023-06-10T10:14:07;99886.81;;;31.39;29.46
38303;BME280;24103;42.454;27.400;2023-06-10T10:16:36;99876.03;;;31.32;29.25
38303;BME280;24103;42.454;27.400;2023-06-10T10:19:10;99877.19;;;31.08;29.36
38303;BME280;24103;42.454;27.400;2023-06-10T10:21:53;99881.94;;;31.00;29.40
38303;BME280;24103;42.454;27.400;2023-06-10T10:24:35;99884.56;;;30.48;29.84
38303;BME280;24103;42.454;27.400;2023-06-10T10:27:07;99882.53;;;30.01;30.44
38303;BME280;24103;42.454;27.400;2023-06-10T10:29:38;99882.38;;;29.54;31.12
38303;BME280;24103;42.454;27.400;2023-06-10T10:32:26;99880.69;;;29.22;32.11
38303;BME280;24103;42.454;27.400;2023-06-10T10:35:10;99891.41;;;28.74;32.17
38303;BME280;24103;42.454;27.400;2023-06-10T10:37:38;99897.59;;;28.62;32.89
38303;BME280;24103;42.454;27.400;2023-06-10T10:40:07;99893.75;;;28.45;33.81
38303;BME280;24103;42.454;27.400;2023-06-10T10:42:34;99880.69;;;28.35;33.97
38303;BME280;24103;42.454;27.400;2023-06-10T10:45:00;99888.53;;;28.43;33.82
38303;BME280;24103;42.454;27.400;2023-06-10T10:47:27;99891.66;;;28.47;34.11
38303;BME280;24103;42.454;27.400;2023-06-10T10:49:56;99891.75;;;28.34;34.29
38303;BME280;24103;42.454;27.400;2023-06-10T10:52:43;99887.31;;;28.39;34.56
38303;BME280;24103;42.454;27.400;2023-06-10T10:55:12;99892.69;;;28.46;34.32
38303;BME280;24103;42.454;27.400;2023-06-10T10:57:38;99892.88;;;28.51;34.49
38303;BME280;24103;42.454;27.400;2023-06-10T11:00:05;99893.25;;;28.80;33.20
38303;BME280;24103;42.454;27.400;2023-06-10T11:05:01;99889.06;;;28.59;32.91
38303;BME280;24103;42.454;27.400;2023-06-10T11:07:29;99881.00;;;28.45;31.30
38303;BME280;24103;42.454;27.400;2023-06-10T11:10:13;99874.22;;;28.29;30.54
38303;BME280;24103;42.454;27.400;2023-06-10T11:15:18;99886.38;;;28.27;30.30
38303;BME280;24103;42.454;27.400;2023-06-10T11:18:12;99871.28;;;28.31;30.11
38303;BME280;24103;42.454;27.400;2023-06-10T11:31:21;99855.25;;;28.92;28.49
38303;BME280;24103;42.454;27.400;2023-06-10T11:33:47;99843.03;;;29.19;28.05
38303;BME280;24103;42.454;27.400;2023-06-10T11:36:14;99849.59;;;29.12;28.93
38303;BME280;24103;42.454;27.400;2023-06-10T11:38:43;99837.50;;;29.08;28.49
38303;BME280;24103;42.454;27.400;2023-06-10T11:41:10;99836.44;;;29.09;27.70
38303;BME280;24103;42.454;27.400;2023-06-10T11:43:36;99840.09;;;29.21;27.65
38303;BME280;24103;42.454;27.400;2023-06-10T11:46:01;99825.19;;;29.42;27.96
38303;BME280;24103;42.454;27.400;2023-06-10T11:48:27;99821.16;;;29.45;27.56
38303;BME280;24103;42.454;27.400;2023-06-10T11:50:55;99811.72;;;29.59;27.48
38303;BME280;24103;42.454;27.400;2023-06-10T11:53:21;99814.13;;;29.67;27.15
38303;BME280;24103;42.454;27.400;2023-06-10T11:55:48;99804.00;;;29.86;26.97
38303;BME280;24103;42.454;27.400;2023-06-10T11:58:17;99813.50;;;30.19;26.73
38303;BME280;24103;42.454;27.400;2023-06-10T12:00:53;99806.53;;;30.11;26.51
38303;BME280;24103;42.454;27.400;2023-06-10T12:03:19;99807.13;;;30.25;26.62
38303;BME280;24103;42.454;27.400;2023-06-10T12:05:58;99793.16;;;30.33;26.20
38303;BME280;24103;42.454;27.400;2023-06-10T12:08:25;99808.47;;;30.46;25.91
38303;BME280;24103;42.454;27.400;2023-06-10T12:10:50;99800.63;;;30.50;26.06
38303;BME280;24103;42.454;27.400;2023-06-10T12:13:16;99800.03;;;30.24;26.73
38303;BME280;24103;42.454;27.400;2023-06-10T12:15:45;99798.94;;;30.25;26.43
38303;BME280;24103;42.454;27.400;2023-06-10T12:18:20;99798.59;;;30.22;26.39
38303;BME280;24103;42.454;27.400;2023-06-10T12:20:47;99786.88;;;30.33;26.51
38303;BME280;24103;42.454;27.400;2023-06-10T12:23:14;99794.72;;;30.53;26.55
38303;BME280;24103;42.454;27.400;2023-06-10T12:25:52;99790.91;;;30.66;26.85
38303;BME280;24103;42.454;27.400;2023-06-10T12:28:26;99792.66;;;30.72;26.90
38303;BME280;24103;42.454;27.400;2023-06-10T12:30:51;99782.97;;;30.64;26.46
38303;BME280;24103;42.454;27.400;2023-06-10T12:33:31;99780.59;;;30.68;26.51
38303;BME280;24103;42.454;27.400;2023-06-10T12:35:56;99785.09;;;30.62;26.90
38303;BME280;24103;42.454;27.400;2023-06-10T12:38:25;99795.88;;;30.57;26.63
38303;BME280;24103;42.454;27.400;2023-06-10T12:40:54;99776.75;;;30.81;26.22
38303;BME280;24103;42.454;27.400;2023-06-10T12:43:26;99778.78;;;30.85;26.29
38303;BME280;24103;42.454;27.400;2023-06-10T12:45:51;99763.78;;;31.00;26.18
38303;BME280;24103;42.454;27.400;2023-06-10T12:48:18;99768.88;;;31.08;26.51
38303;BME280;24103;42.454;27.400;2023-06-10T12:50:46;99768.59;;;30.81;26.24
38303;BME280;24103;42.454;27.400;2023-06-10T12:53:12;99770.69;;;30.91;26.51
38303;BME280;24103;42.454;27.400;2023-06-10T12:55:38;99766.53;;;30.88;26.91
38303;BME280;24103;42.454;27.400;2023-06-10T12:58:03;99769.63;;;30.80;27.23
38303;BME280;24103;42.454;27.400;2023-06-10T13:00:29;99766.06;;;30.91;26.75
38303;BME280;24103;42.454;27.400;2023-06-10T13:02:56;99759.06;;;30.83;26.39
38303;BME280;24103;42.454;27.400;2023-06-10T13:05:22;99756.19;;;30.61;25.94
38303;BME280;24103;42.454;27.400;2023-06-10T13:07:48;99747.03;;;30.67;26.16
38303;BME280;24103;42.454;27.400;2023-06-10T13:10:14;99745.00;;;30.75;26.73